createdAt,value
2018-02-02T00:00:54.002Z,61.56
2018-02-02T00:03:22.512Z,61.07
2018-02-02T00:05:51.010Z,60.89
2018-02-02T00:08:19.505Z,61.40
2018-02-02T00:10:48.022Z,61.34
2018-02-02T00:13:16.481Z,61.32
2018-02-02T00:15:44.967Z,61.85
2018-02-02T00:18:13.469Z,61.41
2018-02-02T00:20:41.974Z,62.52
2018-02-02T00:23:10.478Z,62.94
2018-02-02T00:25:39.036Z,63.03
2018-02-02T00:28:07.503Z,63.82
2018-02-02T00:30:36.012Z,64.72
2018-02-02T00:33:04.474Z,64.55
2018-02-02T00:35:33.009Z,63.93
2018-02-02T00:38:01.480Z,63.57
2018-02-02T00:40:29.983Z,63.88
2018-02-02T00:42:58.442Z,62.61
2018-02-02T00:45:26.945Z,62.59
2018-02-02T00:47:55.438Z,63.39
2018-02-02T00:50:29.421Z,62.11
2018-02-02T00:52:57.929Z,62.45
2018-02-02T00:55:26.439Z,62.58
2018-02-02T00:57:54.898Z,62.28
2018-02-02T01:00:23.390Z,62.56
2018-02-02T01:02:51.885Z,62.49
2018-02-02T01:05:20.361Z,63.29
2018-02-02T01:07:48.814Z,63.97
2018-02-02T01:10:17.323Z,64.17
2018-02-02T01:12:45.841Z,63.91
2018-02-02T01:15:14.320Z,63.92
2018-02-02T01:17:42.778Z,64.05
2018-02-02T01:20:11.273Z,64.07
2018-02-02T01:22:39.811Z,64.13
2018-02-02T01:25:08.289Z,64.26
2018-02-02T01:27:36.770Z,64.13
2018-02-02T01:30:05.286Z,63.58
2018-02-02T01:32:33.788Z,63.78
2018-02-02T01:35:02.256Z,63.26
2018-02-02T01:37:30.764Z,64.35
2018-02-02T01:39:59.285Z,63.43
2018-02-02T01:42:27.741Z,64.31
2018-02-02T01:44:56.210Z,63.93
2018-02-02T01:47:24.717Z,63.96
2018-02-02T01:49:53.178Z,63.78
2018-02-02T01:52:21.677Z,63.71
2018-02-02T01:54:50.186Z,64.39
2018-02-02T01:57:18.685Z,64.30
2018-02-02T01:59:47.180Z,63.74
2018-02-02T02:02:15.669Z,63.07
2018-02-02T02:04:44.125Z,63.24
2018-02-02T02:07:12.626Z,62.62
2018-02-02T02:09:41.086Z,62.42
2018-02-02T02:12:09.586Z,62.66
2018-02-02T02:14:38.090Z,62.80
2018-02-02T02:17:06.621Z,63.35
2018-02-02T02:19:35.085Z,64.79
2018-02-02T02:22:03.535Z,63.88
2018-02-02T02:24:32.023Z,64.14
2018-02-02T02:27:00.470Z,63.83
2018-02-02T02:29:29.016Z,63.77
2018-02-02T02:31:57.553Z,62.67
2018-02-02T02:34:26.057Z,62.31
2018-02-02T02:36:54.530Z,62.06
2018-02-02T02:39:22.998Z,62.09
2018-02-02T02:41:51.518Z,62.36
2018-02-02T02:44:19.982Z,62.70
2018-02-02T02:46:48.478Z,62.57
2018-02-02T02:49:16.969Z,62.82
2018-02-02T02:51:45.426Z,62.97
2018-02-02T02:54:13.918Z,62.01
2018-02-02T02:56:42.369Z,61.77
2018-02-02T02:59:10.861Z,61.84
2018-02-02T03:01:39.353Z,61.67
2018-02-02T03:04:07.850Z,61.45
2018-02-02T03:06:36.354Z,61.00
2018-02-02T03:09:04.978Z,61.10
2018-02-02T03:11:33.433Z,60.90
2018-02-02T03:14:01.952Z,60.44
2018-02-02T03:16:30.418Z,60.25
2018-02-02T03:18:58.926Z,60.16
2018-02-02T03:21:27.403Z,60.05
2018-02-02T03:23:55.905Z,59.98
2018-02-02T03:26:24.405Z,60.80
2018-02-02T03:28:52.892Z,60.89
2018-02-02T03:31:21.416Z,60.05
2018-02-02T03:33:49.909Z,59.97
2018-02-02T03:36:18.369Z,60.48
2018-02-02T03:38:46.882Z,61.73
2018-02-02T03:41:15.337Z,62.23
2018-02-02T03:43:43.829Z,61.66
2018-02-02T03:46:12.281Z,60.95
2018-02-02T03:48:40.749Z,60.34
2018-02-02T03:51:09.209Z,61.12
2018-02-02T03:53:37.725Z,61.57
2018-02-02T03:56:06.191Z,60.60
2018-02-02T03:58:34.651Z,60.24
2018-02-02T04:01:03.144Z,60.01
2018-02-02T04:03:31.609Z,59.95
2018-02-02T04:06:00.104Z,60.51
2018-02-02T04:08:28.569Z,60.44
2018-02-02T04:10:57.073Z,60.42
2018-02-02T04:13:25.569Z,60.60
2018-02-02T04:15:54.025Z,61.03
2018-02-02T04:18:22.512Z,61.58
2018-02-02T04:20:50.981Z,60.87
2018-02-02T04:23:19.488Z,61.03
2018-02-02T04:25:47.944Z,60.73
2018-02-02T04:28:16.458Z,60.39
2018-02-02T04:30:44.907Z,60.42
2018-02-02T04:33:13.353Z,60.22
2018-02-02T04:35:42.041Z,60.13
2018-02-02T04:38:10.537Z,60.57
2018-02-02T04:40:38.999Z,61.73
2018-02-02T04:43:07.522Z,61.88
2018-02-02T04:45:35.995Z,62.02
2018-02-02T04:48:04.509Z,61.98
2018-02-02T04:50:32.976Z,61.54
2018-02-02T04:53:01.465Z,61.74
2018-02-02T04:55:29.935Z,61.26
2018-02-02T04:57:58.429Z,62.86
2018-02-02T05:00:26.881Z,61.62
2018-02-02T05:02:55.378Z,61.46
2018-02-02T05:05:23.882Z,62.86
2018-02-02T05:07:52.370Z,62.76
2018-02-02T05:10:20.837Z,62.08
2018-02-02T05:12:49.373Z,63.53
2018-02-02T05:15:17.833Z,62.46
2018-02-02T05:17:46.325Z,63.03
2018-02-02T05:20:14.821Z,61.64
2018-02-02T05:22:43.325Z,61.15
2018-02-02T05:25:11.781Z,60.91
2018-02-02T05:27:40.283Z,60.71
2018-02-02T05:30:08.781Z,60.61
2018-02-02T05:32:37.242Z,60.37
2018-02-02T05:35:05.709Z,60.44
2018-02-02T05:37:34.213Z,60.90
2018-02-02T05:40:02.715Z,60.25
2018-02-02T05:42:31.218Z,60.25
2018-02-02T05:44:59.773Z,60.42
2018-02-02T05:47:28.229Z,60.13
2018-02-02T05:49:56.678Z,60.02
2018-02-02T05:52:25.220Z,60.30
2018-02-02T05:54:53.673Z,61.09
2018-02-02T05:57:22.169Z,60.91
2018-02-02T05:59:50.630Z,62.78
2018-02-02T06:02:19.179Z,62.20
2018-02-02T06:04:47.637Z,62.96
2018-02-02T06:07:16.178Z,62.12
2018-02-02T06:09:44.682Z,63.62
2018-02-02T06:12:13.173Z,62.64
2018-02-02T06:14:41.633Z,61.60
2018-02-02T06:17:10.122Z,62.23
2018-02-02T06:19:38.647Z,62.62
2018-02-02T06:22:07.205Z,62.99
2018-02-02T06:24:35.677Z,63.49
2018-02-02T06:27:04.172Z,62.09
2018-02-02T06:29:32.666Z,61.54
2018-02-02T06:32:01.137Z,61.13
2018-02-02T06:34:29.654Z,61.77
2018-02-02T06:37:04.642Z,61.26
2018-02-02T06:39:33.156Z,61.51
2018-02-02T06:42:01.650Z,61.06
2018-02-02T06:44:30.145Z,60.99
2018-02-02T06:46:58.588Z,60.87
2018-02-02T06:49:27.099Z,61.00
2018-02-02T06:51:55.569Z,61.33
2018-02-02T06:54:24.077Z,60.88
2018-02-02T06:56:52.547Z,60.55
2018-02-02T06:59:21.069Z,60.25
2018-02-02T07:01:49.544Z,60.40
2018-02-02T07:04:18.962Z,60.20
2018-02-02T07:06:47.446Z,60.15
2018-02-02T07:09:15.909Z,60.69
2018-02-02T07:11:44.422Z,60.35
2018-02-02T07:14:12.891Z,60.84
2018-02-02T07:16:41.402Z,61.51
2018-02-02T07:19:09.954Z,60.41
2018-02-02T07:21:38.432Z,59.94
2018-02-02T07:24:06.949Z,59.66
2018-02-02T07:26:35.428Z,59.48
2018-02-02T07:29:03.913Z,59.59
2018-02-02T07:31:32.451Z,60.04
2018-02-02T07:34:00.923Z,60.01
2018-02-02T07:36:29.462Z,59.62
2018-02-02T07:38:57.938Z,59.36
2018-02-02T07:41:26.449Z,59.56
2018-02-02T07:43:54.926Z,58.96
2018-02-02T07:46:23.418Z,59.26
2018-02-02T07:48:51.902Z,58.73
2018-02-02T07:51:20.450Z,58.67
2018-02-02T07:53:48.999Z,58.37
2018-02-02T07:56:17.478Z,58.23
2018-02-02T07:58:46.014Z,58.02
2018-02-02T08:01:20.053Z,57.76
2018-02-02T08:03:48.585Z,56.78
2018-02-02T08:06:17.081Z,57.21
2018-02-02T08:08:45.607Z,56.83
2018-02-02T08:11:14.109Z,56.51
2018-02-02T08:13:42.590Z,56.12
2018-02-02T08:16:11.093Z,55.26
2018-02-02T08:18:39.554Z,55.69
2018-02-02T08:21:08.066Z,55.75
2018-02-02T08:23:36.537Z,55.63
2018-02-02T08:26:05.053Z,54.93
2018-02-02T08:28:33.586Z,54.44
2018-02-02T08:31:02.093Z,54.38
2018-02-02T08:33:30.593Z,53.91
2018-02-02T08:35:59.070Z,53.31
2018-02-02T08:38:27.538Z,53.43
2018-02-02T08:40:56.073Z,52.26
2018-02-02T08:43:24.541Z,52.16
2018-02-02T08:45:53.133Z,52.54
2018-02-02T08:48:21.675Z,50.83
2018-02-02T08:50:50.153Z,51.31
2018-02-02T08:53:18.617Z,50.72
2018-02-02T08:55:47.145Z,49.89
2018-02-02T08:58:15.697Z,51.42
2018-02-02T09:00:49.702Z,50.42
2018-02-02T09:03:18.201Z,50.39
2018-02-02T09:05:46.760Z,48.86
2018-02-02T09:08:15.225Z,47.90
2018-02-02T09:10:43.741Z,49.12
2018-02-02T09:13:12.219Z,47.53
2018-02-02T09:15:40.701Z,47.74
2018-02-02T09:18:09.202Z,48.68
2018-02-02T09:20:37.669Z,46.03
2018-02-02T09:23:06.139Z,47.91
2018-02-02T09:25:34.642Z,47.54
2018-02-02T09:28:02.586Z,47.08
2018-02-02T09:30:31.108Z,45.83
2018-02-02T09:32:59.605Z,47.25
2018-02-02T09:35:28.125Z,47.26
2018-02-02T09:37:56.694Z,46.95
2018-02-02T09:40:25.250Z,47.04
2018-02-02T09:42:53.772Z,46.48
2018-02-02T09:45:22.241Z,46.69
2018-02-02T09:47:51.558Z,47.27
2018-02-02T09:50:20.074Z,47.03
2018-02-02T09:52:48.683Z,48.48
2018-02-02T09:55:17.148Z,47.65
2018-02-02T09:57:45.661Z,47.13
2018-02-02T10:00:14.177Z,47.50
2018-02-02T10:02:42.686Z,47.20
2018-02-02T10:05:11.205Z,47.24
2018-02-02T10:07:39.713Z,47.06
2018-02-02T10:10:08.221Z,47.22
2018-02-02T10:12:36.685Z,46.88
2018-02-02T10:15:05.185Z,45.19
2018-02-02T10:17:33.670Z,45.78
2018-02-02T10:20:02.185Z,45.28
2018-02-02T10:22:30.649Z,46.02
2018-02-02T10:24:59.154Z,45.65
2018-02-02T10:27:27.623Z,45.88
2018-02-02T10:29:56.103Z,45.71
2018-02-02T10:32:24.557Z,45.61
2018-02-02T10:34:53.069Z,45.15
2018-02-02T10:37:21.534Z,45.82
2018-02-02T10:39:50.054Z,45.80
2018-02-02T10:42:18.532Z,45.20
2018-02-02T10:44:47.001Z,45.61
2018-02-02T10:47:15.526Z,45.50
2018-02-02T10:49:44.037Z,45.44
2018-02-02T10:52:12.510Z,45.53
2018-02-02T10:54:41.024Z,45.73
2018-02-02T10:57:09.550Z,45.59
2018-02-02T10:59:38.022Z,46.19
2018-02-02T11:02:11.889Z,46.36
2018-02-02T11:04:40.390Z,47.12
2018-02-02T11:07:08.883Z,47.25
2018-02-02T11:09:37.346Z,47.15
2018-02-02T11:12:05.917Z,46.94
2018-02-02T11:14:34.378Z,47.04
2018-02-02T11:17:02.895Z,47.00
2018-02-02T11:19:31.363Z,46.99
2018-02-02T11:21:59.865Z,47.14
2018-02-02T11:24:28.385Z,47.00
2018-02-02T11:26:56.893Z,47.39
2018-02-02T11:29:25.397Z,47.25
2018-02-02T11:31:53.892Z,47.19
2018-02-02T11:34:22.417Z,47.08
2018-02-02T11:36:50.883Z,47.05
2018-02-02T11:39:19.323Z,47.21
2018-02-02T11:41:47.819Z,47.13
2018-02-02T11:44:16.330Z,47.38
2018-02-02T11:46:44.845Z,47.16
2018-02-02T11:49:13.346Z,47.02
2018-02-02T11:51:41.851Z,46.99
2018-02-02T11:54:10.321Z,47.08
2018-02-02T11:56:38.822Z,46.54
2018-02-02T11:59:07.263Z,46.74
2018-02-02T12:01:35.809Z,46.60
2018-02-02T12:04:04.279Z,46.86
2018-02-02T12:06:32.788Z,46.49
2018-02-02T12:09:01.308Z,46.46
2018-02-02T12:11:29.822Z,46.87
2018-02-02T12:13:58.327Z,45.94
2018-02-02T12:16:26.841Z,45.79
2018-02-02T12:18:55.384Z,46.03
2018-02-02T12:21:23.937Z,45.67
2018-02-02T12:24:02.918Z,45.78
2018-02-02T12:29:39.034Z,45.50
2018-02-02T12:35:22.177Z,45.37
2018-02-02T12:37:50.788Z,46.22
2018-02-02T12:40:19.379Z,45.98
2018-02-02T12:42:47.910Z,45.75
2018-02-02T12:45:16.448Z,45.79
2018-02-02T12:47:56.733Z,45.46
2018-02-02T12:50:25.254Z,45.62
2018-02-02T12:52:53.878Z,45.57
2018-02-02T12:55:22.390Z,45.50
2018-02-02T12:57:51.597Z,45.34
2018-02-02T13:00:20.119Z,44.93
2018-02-02T13:02:48.585Z,45.40
2018-02-02T13:05:17.058Z,44.94
2018-02-02T13:07:45.571Z,45.01
2018-02-02T13:10:14.075Z,44.69
2018-02-02T13:12:42.582Z,44.56
2018-02-02T13:15:11.085Z,44.71
2018-02-02T13:17:39.557Z,44.69
2018-02-02T13:20:08.113Z,44.55
2018-02-02T13:22:36.801Z,44.76
2018-02-02T13:25:05.333Z,44.57
2018-02-02T13:27:33.840Z,44.63
2018-02-02T13:30:02.282Z,44.79
2018-02-02T13:32:30.860Z,44.62
2018-02-02T13:34:59.345Z,44.41
2018-02-02T13:37:27.873Z,44.46
2018-02-02T13:39:56.393Z,44.26
2018-02-02T13:42:24.905Z,44.58
2018-02-02T13:44:53.447Z,44.49
2018-02-02T13:47:21.959Z,44.41
2018-02-02T13:49:50.470Z,44.41
2018-02-02T13:52:18.945Z,44.39
2018-02-02T13:54:47.482Z,44.15
2018-02-02T13:57:15.995Z,44.62
2018-02-02T13:59:44.453Z,44.56
2018-02-02T14:02:12.966Z,44.56
2018-02-02T14:04:41.431Z,44.58
2018-02-02T14:07:09.930Z,44.80
2018-02-02T14:09:38.401Z,44.75
2018-02-02T14:12:06.910Z,44.73
2018-02-02T14:14:35.373Z,44.80
2018-02-02T14:17:03.878Z,44.68
2018-02-02T14:19:32.386Z,44.64
2018-02-02T14:22:00.904Z,44.58
2018-02-02T14:24:29.422Z,44.73
2018-02-02T14:26:57.929Z,45.04
2018-02-02T14:29:26.390Z,44.91
2018-02-02T14:31:54.858Z,45.28
2018-02-02T14:34:23.381Z,45.32
2018-02-02T14:36:51.885Z,45.34
2018-02-02T14:39:20.353Z,45.58
2018-02-02T14:41:48.865Z,45.58
2018-02-02T14:44:17.341Z,45.50
2018-02-02T14:46:45.806Z,45.72
2018-02-02T14:49:14.313Z,46.87
2018-02-02T14:51:42.786Z,46.77
2018-02-02T14:54:11.292Z,46.72
2018-02-02T14:56:39.797Z,47.00
2018-02-02T14:59:08.352Z,47.51
2018-02-02T15:01:36.829Z,46.93
2018-02-02T15:04:05.403Z,47.31
2018-02-02T15:06:33.858Z,47.01
2018-02-02T15:09:02.322Z,46.88
2018-02-02T15:11:30.837Z,47.11
2018-02-02T15:13:59.343Z,47.40
2018-02-02T15:16:27.837Z,47.53
2018-02-02T15:18:56.354Z,47.75
2018-02-02T15:21:25.029Z,47.84
2018-02-02T15:23:53.577Z,48.63
2018-02-02T15:26:22.153Z,48.89
2018-02-02T15:28:50.710Z,49.55
2018-02-02T15:31:19.180Z,49.29
2018-02-02T15:33:47.646Z,49.30
2018-02-02T15:36:16.173Z,49.00
2018-02-02T15:38:44.690Z,49.57
2018-02-02T15:41:13.150Z,49.66
2018-02-02T15:43:41.599Z,48.85
2018-02-02T15:46:10.153Z,48.58
2018-02-02T15:48:38.650Z,48.48
2018-02-02T15:51:07.193Z,48.39
2018-02-02T15:53:35.698Z,48.43
2018-02-02T15:56:04.288Z,48.44
2018-02-02T15:58:32.762Z,48.53
2018-02-02T16:01:01.321Z,49.01
2018-02-02T16:03:29.764Z,49.23
2018-02-02T16:05:58.300Z,48.97
2018-02-02T16:08:27.025Z,48.98
2018-02-02T16:10:55.527Z,49.42
2018-02-02T16:13:24.018Z,49.37
2018-02-02T16:15:52.509Z,49.44
2018-02-02T16:18:21.004Z,49.33
2018-02-02T16:20:49.511Z,49.58
2018-02-02T16:23:17.979Z,50.71
2018-02-02T16:25:46.504Z,51.29
2018-02-02T16:28:14.966Z,52.61
2018-02-02T16:30:43.482Z,51.14
2018-02-02T16:33:11.942Z,50.76
2018-02-02T16:35:40.450Z,50.56
2018-02-02T16:38:08.949Z,50.39
2018-02-02T16:40:37.419Z,51.46
2018-02-02T16:43:05.944Z,50.86
2018-02-02T16:45:34.445Z,52.70
2018-02-02T16:48:02.908Z,51.44
2018-02-02T16:50:31.445Z,51.11
2018-02-02T16:52:59.970Z,51.21
2018-02-02T16:55:28.486Z,52.84
2018-02-02T16:57:56.994Z,52.72
2018-02-02T17:00:26.353Z,52.95
2018-02-02T17:02:54.854Z,52.77
2018-02-02T17:05:23.369Z,52.39
2018-02-02T17:07:51.896Z,52.22
2018-02-02T17:10:20.429Z,51.90
2018-02-02T17:12:48.938Z,51.76
2018-02-02T17:15:17.437Z,51.60
2018-02-02T17:17:45.937Z,51.67
2018-02-02T17:20:14.405Z,55.08
2018-02-02T17:22:42.910Z,53.12
2018-02-02T17:25:11.373Z,52.64
2018-02-02T17:27:39.882Z,52.77
2018-02-02T17:30:08.326Z,52.48
2018-02-02T17:32:36.790Z,52.33
2018-02-02T17:35:05.289Z,52.21
2018-02-02T17:37:33.749Z,52.19
2018-02-02T17:40:02.242Z,52.47
2018-02-02T17:42:30.749Z,53.19
2018-02-02T17:44:59.209Z,53.05
2018-02-02T17:47:27.672Z,52.78
2018-02-02T17:49:56.191Z,52.74
2018-02-02T17:52:24.702Z,52.83
2018-02-02T17:54:53.188Z,54.25
2018-02-02T17:57:21.688Z,54.54
2018-02-02T17:59:50.238Z,53.80
2018-02-02T18:02:18.764Z,53.24
2018-02-02T18:04:47.257Z,53.48
2018-02-02T18:07:15.794Z,55.17
2018-02-02T18:09:44.910Z,56.65
2018-02-02T18:12:13.409Z,55.58
2018-02-02T18:14:41.949Z,54.68
2018-02-02T18:17:10.430Z,54.40
2018-02-02T18:19:38.942Z,54.42
2018-02-02T18:22:07.459Z,55.97
2018-02-02T18:24:35.930Z,55.21
2018-02-02T18:27:04.430Z,54.79
2018-02-02T18:29:32.894Z,58.34
2018-02-02T18:32:01.406Z,55.74
2018-02-02T18:34:29.966Z,55.21
2018-02-02T18:36:58.459Z,56.18
2018-02-02T18:39:26.958Z,58.48
2018-02-02T18:41:55.502Z,56.50
2018-02-02T18:44:24.010Z,55.93
2018-02-02T18:46:52.481Z,55.68
2018-02-02T18:49:21.007Z,56.08
2018-02-02T18:51:49.486Z,55.65
2018-02-02T18:54:17.995Z,55.95
2018-02-02T18:56:46.473Z,57.67
2018-02-02T18:59:14.978Z,57.07
2018-02-02T19:01:43.445Z,59.38
2018-02-02T19:04:11.932Z,57.13
2018-02-02T19:06:40.394Z,56.38
2018-02-02T19:09:08.934Z,56.07
2018-02-02T19:11:37.433Z,56.02
2018-02-02T19:14:05.958Z,56.01
2018-02-02T19:16:34.460Z,56.99
2018-02-02T19:19:02.961Z,58.03
2018-02-02T19:21:31.484Z,56.99
2018-02-02T19:23:59.945Z,56.54
2018-02-02T19:26:28.405Z,56.38
2018-02-02T19:28:56.901Z,57.03
2018-02-02T19:31:25.366Z,58.53
2018-02-02T19:33:53.902Z,57.36
2018-02-02T19:36:22.384Z,58.24
2018-02-02T19:38:50.894Z,58.01
2018-02-02T19:41:19.365Z,60.93
2018-02-02T19:43:47.887Z,60.29
2018-02-02T19:46:16.373Z,59.84
2018-02-02T19:48:44.841Z,60.35
2018-02-02T19:51:13.333Z,59.87
2018-02-02T19:53:41.837Z,60.68
2018-02-02T19:56:10.322Z,58.92
2018-02-02T19:58:38.818Z,58.32
2018-02-02T20:01:07.314Z,57.94
2018-02-02T20:03:36.671Z,57.83
2018-02-02T20:06:05.134Z,57.63
2018-02-02T20:08:33.605Z,58.88
2018-02-02T20:11:02.109Z,59.13
2018-02-02T20:13:30.579Z,58.30
2018-02-02T20:15:59.103Z,58.59
2018-02-02T20:18:27.547Z,59.23
2018-02-02T20:20:56.045Z,58.51
2018-02-02T20:23:24.537Z,58.86
2018-02-02T20:25:52.997Z,58.16
2018-02-02T20:28:21.498Z,58.22
2018-02-02T20:30:49.981Z,57.83
2018-02-02T20:33:18.481Z,57.93
2018-02-02T20:35:46.955Z,58.50
2018-02-02T20:38:15.497Z,58.06
2018-02-02T20:40:43.969Z,57.97
2018-02-02T20:43:12.484Z,58.12
2018-02-02T20:45:41.029Z,57.78
2018-02-02T20:48:09.504Z,57.61
2018-02-02T20:50:38.013Z,57.45
2018-02-02T20:53:06.541Z,57.94
2018-02-02T20:55:35.030Z,57.58
2018-02-02T20:58:03.544Z,58.17
2018-02-02T21:00:31.994Z,57.98
2018-02-02T21:03:00.565Z,59.73
2018-02-02T21:05:29.106Z,58.51
2018-02-02T21:07:57.602Z,58.39
2018-02-02T21:10:26.117Z,59.29
2018-02-02T21:12:54.571Z,59.59
2018-02-02T21:15:23.074Z,60.26
2018-02-02T21:17:51.890Z,62.20
2018-02-02T21:20:20.358Z,60.24
2018-02-02T21:22:48.863Z,60.64
2018-02-02T21:25:17.340Z,59.40
2018-02-02T21:27:45.842Z,59.17
2018-02-02T21:30:14.332Z,58.93
2018-02-02T21:32:42.814Z,59.11
2018-02-02T21:35:11.305Z,58.89
2018-02-02T21:37:39.792Z,62.07
2018-02-02T21:40:08.297Z,60.49
2018-02-02T21:42:36.768Z,60.12
2018-02-02T21:45:05.236Z,59.00
2018-02-02T21:47:33.781Z,59.26
2018-02-02T21:50:02.242Z,59.54
2018-02-02T21:52:30.774Z,63.23
2018-02-02T21:54:59.262Z,63.51
2018-02-02T21:57:27.803Z,61.04
2018-02-02T21:59:56.297Z,60.51
2018-02-02T22:02:24.764Z,60.28
2018-02-02T22:04:53.273Z,63.91
2018-02-02T22:07:21.729Z,64.51
2018-02-02T22:09:50.207Z,63.24
2018-02-02T22:12:18.705Z,63.88
2018-02-02T22:14:47.198Z,61.91
2018-02-02T22:17:15.686Z,62.38
2018-02-02T22:19:44.133Z,61.78
2018-02-02T22:22:12.585Z,64.64
2018-02-02T22:24:41.037Z,64.80
2018-02-02T22:27:09.558Z,65.35
2018-02-02T22:29:38.008Z,63.55
2018-02-02T22:32:06.464Z,68.70
2018-02-02T22:34:34.861Z,68.24
2018-02-02T22:37:03.344Z,66.47
2018-02-02T22:39:31.736Z,67.45
2018-02-02T22:42:00.153Z,67.70
2018-02-02T22:44:28.593Z,65.30
2018-02-02T22:46:57.016Z,65.93
2018-02-02T22:49:25.464Z,64.69
2018-02-02T22:51:53.876Z,64.01
2018-02-02T22:54:22.398Z,63.88
2018-02-02T22:56:50.796Z,64.01
2018-02-02T22:59:19.222Z,63.73
2018-02-02T23:01:47.688Z,63.11
2018-02-02T23:04:16.125Z,63.15
2018-02-02T23:06:44.552Z,62.89
2018-02-02T23:09:13.017Z,62.87
2018-02-02T23:11:41.412Z,62.77
2018-02-02T23:14:09.868Z,62.40
2018-02-02T23:16:38.265Z,62.11
2018-02-02T23:19:06.711Z,62.49
2018-02-02T23:21:35.148Z,64.33
2018-02-02T23:24:03.553Z,63.49
2018-02-02T23:26:32.021Z,62.97
2018-02-02T23:29:00.452Z,62.68
2018-02-02T23:31:28.845Z,62.74
2018-02-02T23:33:57.289Z,62.44
2018-02-02T23:36:25.715Z,63.27
2018-02-02T23:38:54.153Z,62.76
2018-02-02T23:41:22.576Z,62.37
2018-02-02T23:43:50.985Z,63.58
2018-02-02T23:46:19.422Z,62.45
2018-02-02T23:48:47.834Z,67.44
2018-02-02T23:51:16.310Z,64.68
2018-02-02T23:53:44.709Z,64.48
2018-02-02T23:56:13.145Z,65.67
2018-02-02T23:58:41.584Z,64.04
